Time;durP1;ratioP1;P1;durP2;ratioP2;P2;SDS_P1;SDS_P2;PMS_P1;PMS_P2;Temp;Humidity;BMP_temperature;BMP_pressure;BME280_temperature;BME280_humidity;BME280_pressure;Samples;Min_cycle;Max_cycle;Signal;HPM_P1;HPM_P2
2024/03/04 00:00:10;;;;;;;23.58;13.35;;;;;;;7.63;56.78;93535.34;5031960;28;20072;-72
2024/03/04 00:02:36;;;;;;;25.60;14.65;;;;;;;7.67;56.90;93536.34;5033768;28;20033;-72
2024/03/04 00:05:01;;;;;;;19.60;13.35;;;;;;;7.71;56.75;93537.28;5032641;28;20040;-72
2024/03/04 00:07:26;;;;;;;26.13;16.40;;;;;;;7.63;56.46;93519.47;5033127;28;20072;-72
2024/03/04 00:09:52;;;;;;;22.17;14.75;;;;;;;7.64;56.52;93534.28;5032860;28;20132;-72
2024/03/04 00:12:17;;;;;;;23.45;14.02;;;;;;;7.59;56.54;93529.09;5032950;28;20026;-72
2024/03/04 00:14:43;;;;;;;24.20;13.98;;;;;;;7.60;56.62;93525.38;5033491;28;20112;-72
2024/03/04 00:17:09;;;;;;;20.13;13.30;;;;;;;7.55;56.69;93517.56;5032562;28;20100;-72
2024/03/04 00:19:36;;;;;;;19.02;12.13;;;;;;;7.66;56.77;93528.69;5032974;28;20037;-72
2024/03/04 00:22:03;;;;;;;18.50;13.25;;;;;;;7.55;56.65;93512.25;5032636;28;20062;-72
2024/03/04 00:24:29;;;;;;;16.25;11.18;;;;;;;7.68;56.39;93527.28;5032517;28;20501;-72
2024/03/04 00:26:54;;;;;;;16.80;9.68;;;;;;;7.69;56.48;93517.50;5032479;28;20031;-70
2024/03/04 00:29:19;;;;;;;15.18;9.82;;;;;;;7.69;56.13;93515.63;5033070;28;20033;-72
2024/03/04 00:31:45;;;;;;;15.60;9.48;;;;;;;7.66;56.46;93513.59;5031619;28;20037;-72
2024/03/04 00:34:12;;;;;;;18.80;11.15;;;;;;;7.67;56.19;93509.09;5032339;28;20041;-72
2024/03/04 00:36:38;;;;;;;18.05;11.63;;;;;;;7.60;56.57;93509.50;5032407;28;20033;-72
2024/03/04 00:39:03;;;;;;;22.08;11.52;;;;;;;7.49;56.46;93497.56;5032254;28;20056;-72
2024/03/04 00:41:29;;;;;;;21.58;11.65;;;;;;;7.32;57.08;93496.69;5032991;28;20416;-72
2024/03/04 00:43:55;;;;;;;19.60;11.70;;;;;;;7.43;57.23;93508.59;5032195;28;20064;-72
2024/03/04 00:46:22;;;;;;;19.73;12.45;;;;;;;7.34;57.28;93490.00;5032118;28;20040;-72
2024/03/04 00:48:48;;;;;;;14.98;10.82;;;;;;;7.43;57.23;93504.09;5031995;28;20120;-72
2024/03/04 00:51:14;;;;;;;19.60;11.88;;;;;;;7.39;57.24;93495.16;5032563;28;20124;-72
2024/03/04 00:53:40;;;;;;;19.17;11.45;;;;;;;7.36;56.95;93485.19;5032775;28;20113;-72
2024/03/04 00:56:07;;;;;;;19.10;12.77;;;;;;;7.23;57.55;93478.09;5031969;28;20136;-72
2024/03/04 00:58:33;;;;;;;20.45;11.88;;;;;;;7.35;57.46;93480.97;5031903;28;20064;-71
2024/03/04 01:00:58;;;;;;;19.38;12.23;;;;;;;7.41;57.46;93498.31;5031868;28;20072;-72
2024/03/04 01:03:24;;;;;;;16.63;11.20;;;;;;;7.37;57.48;93500.00;5031932;28;20069;-72
2024/03/04 01:05:49;;;;;;;20.80;11.90;;;;;;;7.15;57.29;93455.00;5032237;28;20029;-72
2024/03/04 01:08:15;;;;;;;17.88;11.07;;;;;;;7.37;57.36;93494.69;5031743;28;20057;-72
2024/03/04 01:10:43;;;;;;;16.90;10.43;;;;;;;7.24;57.18;93480.44;5031749;28;20036;-72
2024/03/04 01:13:09;;;;;;;18.35;11.35;;;;;;;7.34;56.96;93495.28;5031656;28;20034;-72
2024/03/04 01:15:35;;;;;;;15.95;9.68;;;;;;;7.33;56.57;93498.25;5031972;28;20033;-72
2024/03/04 01:18:01;;;;;;;17.48;10.52;;;;;;;7.31;56.63;93495.91;5032130;28;20062;-71
2024/03/04 01:20:26;;;;;;;19.23;12.98;;;;;;;7.19;56.81;93498.31;5032247;28;20128;-72
2024/03/04 01:22:52;;;;;;;20.60;13.90;;;;;;;7.16;57.11;93488.31;5031503;28;20516;-72
2024/03/04 01:25:18;;;;;;;23.52;13.55;;;;;;;7.23;56.77;93496.63;5031395;28;20037;-72
2024/03/04 01:27:43;;;;;;;22.95;13.57;;;;;;;7.22;56.77;93509.06;5031489;28;20045;-72
2024/03/04 01:30:09;;;;;;;21.83;12.55;;;;;;;7.02;56.91;93492.84;5032013;28;20036;-72
2024/03/04 01:32:36;;;;;;;18.23;10.45;;;;;;;7.16;57.11;93502.31;5032386;28;20118;-72
2024/03/04 01:35:04;;;;;;;16.50;10.10;;;;;;;7.26;57.15;93511.88;5031636;28;20064;-72
2024/03/04 01:37:29;;;;;;;21.63;10.75;;;;;;;7.09;57.23;93493.25;5031276;28;20029;-72
2024/03/04 01:39:55;;;;;;;16.73;11.07;;;;;;;7.26;56.90;93517.16;5031362;28;20068;-72
2024/03/04 01:42:21;;;;;;;15.45;10.57;;;;;;;7.13;56.51;93502.13;5030630;28;20041;-72
2024/03/04 01:44:47;;;;;;;20.25;12.02;;;;;;;6.88;56.73;93470.97;5032153;28;20117;-71
2024/03/04 01:47:20;;;;;;;17.27;11.60;;;;;;;6.83;56.87;93459.41;5031157;28;20113;-72
2024/03/04 01:49:47;;;;;;;14.15;10.05;;;;;;;6.96;57.41;93499.31;5031302;28;20127;-72
2024/03/04 01:52:15;;;;;;;16.80;11.00;;;;;;;7.02;57.64;93516.66;5031042;28;20033;-72
2024/03/04 01:54:43;;;;;;;17.15;10.60;;;;;;;7.04;57.78;93514.50;5031610;28;20040;-72
2024/03/04 01:57:11;;;;;;;15.00;10.35;;;;;;;7.04;57.57;93517.16;5031715;28;20053;-72
2024/03/04 01:59:38;;;;;;;15.18;10.27;;;;;;;7.02;57.62;93512.16;5031923;28;20030;-72
2024/03/04 02:02:05;;;;;;;15.85;10.15;;;;;;;7.05;57.21;93510.75;5031240;28;20065;-72
2024/03/04 02:04:32;;;;;;;14.55;10.18;;;;;;;7.02;57.62;93514.78;5031127;28;20493;-71
2024/03/04 02:06:59;;;;;;;15.95;10.57;;;;;;;6.93;57.51;93492.00;5031357;28;20033;-72
2024/03/04 02:09:26;;;;;;;14.40;8.85;;;;;;;7.12;57.58;93513.78;5031096;28;20136;-72
2024/03/04 02:11:52;;;;;;;16.88;9.07;;;;;;;7.07;57.28;93513.91;5031893;28;20124;-72
2024/03/04 02:14:18;;;;;;;13.10;9.50;;;;;;;7.04;57.07;93509.22;5031261;28;20484;-70
2024/03/04 02:16:44;;;;;;;15.13;9.07;;;;;;;7.03;57.02;93505.00;5031402;28;20163;-72
2024/03/04 02:19:14;;;;;;;14.77;9.20;;;;;;;6.86;57.03;93495.81;5031105;28;20079;-72
2024/03/04 02:21:45;;;;;;;15.10;10.00;;;;;;;6.92;57.05;93508.94;5031161;28;20060;-72
2024/03/04 02:24:11;;;;;;;15.98;9.98;;;;;;;6.84;57.29;93508.56;5031181;28;20021;-72
2024/03/04 02:26:36;;;;;;;14.50;10.05;;;;;;;6.89;57.45;93515.63;5031416;28;20473;-72
2024/03/04 02:29:02;;;;;;;13.38;7.97;;;;;;;6.88;57.03;93521.19;5030940;28;20049;-72
2024/03/04 02:31:29;;;;;;;15.52;8.77;;;;;;;6.84;57.26;93518.34;5031222;28;20497;-72
2024/03/04 02:33:56;;;;;;;12.00;7.72;;;;;;;6.89;57.14;93515.63;5031199;28;20029;-72
2024/03/04 02:36:23;;;;;;;12.73;7.97;;;;;;;6.69;57.14;93516.81;5031037;28;20053;-72
2024/03/04 02:38:49;;;;;;;13.55;8.98;;;;;;;6.72;57.23;93521.50;5031544;28;20045;-72
2024/03/04 02:41:15;;;;;;;16.42;10.02;;;;;;;6.78;57.37;93530.91;5030870;28;20068;-72
2024/03/04 02:43:46;;;;;;;11.52;8.27;;;;;;;6.78;57.42;93520.31;5031161;28;20061;-72
2024/03/04 02:46:11;;;;;;;14.90;8.82;;;;;;;6.78;57.56;93522.19;5031095;28;20088;-72
2024/03/04 02:48:37;;;;;;;12.60;9.60;;;;;;;6.73;57.43;93524.94;5030898;28;20038;-72
2024/03/04 02:51:02;;;;;;;13.35;8.35;;;;;;;6.57;57.05;93511.22;5030644;28;20029;-72
2024/03/04 02:53:27;;;;;;;15.90;8.15;;;;;;;6.77;56.94;93529.31;5031505;28;20064;-72
2024/03/04 02:55:53;;;;;;;16.95;8.40;;;;;;;6.80;57.17;93535.88;5033783;28;20032;-72
2024/03/04 02:58:18;;;;;;;11.68;7.40;;;;;;;6.73;57.07;93541.56;5034373;28;20060;-72
2024/03/04 03:00:44;;;;;;;17.77;8.10;;;;;;;6.59;57.05;93522.31;5034481;28;20057;-72
2024/03/04 03:03:09;;;;;;;12.80;8.43;;;;;;;6.72;57.12;93547.13;5034349;28;20057;-72
2024/03/04 03:05:35;;;;;;;18.95;10.15;;;;;;;6.72;56.99;93550.56;5034701;28;20079;-72
2024/03/04 03:08:00;;;;;;;13.25;8.93;;;;;;;6.59;56.81;93522.31;5034237;28;20623;-72
2024/03/04 03:10:27;;;;;;;12.52;7.85;;;;;;;6.72;57.21;93547.94;5034161;28;20033;-72
2024/03/04 03:12:53;;;;;;;14.32;7.85;;;;;;;6.53;57.11;93514.75;5034200;28;20030;-72
2024/03/04 03:15:18;;;;;;;15.63;8.35;;;;;;;6.65;57.35;93547.53;5034152;28;20034;-72
2024/03/04 03:17:44;;;;;;;12.50;9.10;;;;;;;6.61;57.54;93545.75;5034767;28;20021;-72
2024/03/04 03:20:16;;;;;;;11.93;7.80;;;;;;;6.59;57.75;93540.00;5034299;28;20553;-72
2024/03/04 03:22:45;;;;;;;13.55;9.02;;;;;;;6.57;58.42;93544.78;5034122;28;20041;-72
2024/03/04 03:25:14;;;;;;;13.88;8.68;;;;;;;6.54;58.30;93551.47;5033968;28;20087;-72
2024/03/04 03:27:40;;;;;;;13.20;7.70;;;;;;;6.36;58.25;93528.56;5033898;28;20116;-72
2024/03/04 03:30:07;;;;;;;13.30;7.97;;;;;;;6.56;58.18;93551.94;5032553;28;20025;-71
2024/03/04 03:32:36;;;;;;;9.00;6.95;;;;;;;6.48;58.37;93547.34;5034203;28;20030;-71
2024/03/04 03:35:01;;;;;;;12.95;8.20;;;;;;;6.59;58.87;93553.22;5033961;28;20033;-72
2024/03/04 03:37:27;;;;;;;13.32;8.45;;;;;;;6.48;58.11;93528.84;5033783;28;20029;-72
2024/03/04 03:39:52;;;;;;;17.83;8.57;;;;;;;6.64;57.95;93556.56;5033368;28;20037;-72
2024/03/04 03:42:17;;;;;;;13.25;8.27;;;;;;;6.57;57.96;93539.50;5033519;28;20079;-72
2024/03/04 03:44:43;;;;;;;13.52;8.65;;;;;;;6.65;57.75;93557.34;5034283;28;20369;-72
2024/03/04 03:47:08;;;;;;;13.20;8.30;;;;;;;6.62;57.80;93565.84;5033432;28;20081;-72
2024/03/04 03:49:34;;;;;;;15.18;8.43;;;;;;;6.69;57.61;93560.94;5033216;28;20493;-71
2024/03/04 03:51:59;;;;;;;12.32;8.75;;;;;;;6.70;57.48;93554.59;5033451;28;20033;-72
2024/03/04 03:54:25;;;;;;;14.43;8.30;;;;;;;6.52;56.97;93529.81;5033284;28;20037;-72
2024/03/04 03:56:51;;;;;;;15.05;8.13;;;;;;;6.70;56.97;93558.00;5033511;28;20087;-72
2024/03/04 03:59:16;;;;;;;11.57;7.82;;;;;;;6.72;56.95;93558.50;5033125;28;20038;-71
2024/03/04 04:01:42;;;;;;;11.40;7.50;;;;;;;6.56;56.87;93538.72;5033262;28;20034;-71
2024/03/04 04:04:07;;;;;;;15.35;7.97;;;;;;;6.73;56.75;93564.56;5033272;28;20137;-70
2024/03/04 04:06:32;;;;;;;13.00;7.57;;;;;;;6.67;56.69;93566.53;5032529;28;20080;-71
2024/03/04 04:08:58;;;;;;;12.68;8.18;;;;;;;6.64;57.01;93567.13;5033111;28;20025;-71
2024/03/04 04:11:23;;;;;;;10.95;8.15;;;;;;;6.59;57.14;93564.56;5033664;28;20029;-71
2024/03/04 04:13:48;;;;;;;13.57;7.93;;;;;;;6.60;56.81;93570.66;5033128;28;20496;-71
2024/03/04 04:16:14;;;;;;;11.25;7.13;;;;;;;6.57;56.82;93566.72;5032849;28;20385;-71
2024/03/04 04:18:42;;;;;;;15.15;9.65;;;;;;;6.57;56.92;93566.72;5032886;28;20160;-71
2024/03/04 04:21:08;;;;;;;12.70;7.63;;;;;;;6.50;56.92;93550.50;5033281;28;20068;-71
2024/03/04 04:23:34;;;;;;;10.75;7.13;;;;;;;6.52;56.46;93547.53;5033347;28;20500;-71
2024/03/04 04:26:00;;;;;;;14.88;8.13;;;;;;;6.47;56.67;93558.19;5032563;28;20092;-71
2024/03/04 04:28:25;;;;;;;13.10;7.95;;;;;;;6.61;56.68;93570.34;5032525;28;20060;-71
2024/03/04 04:30:51;;;;;;;12.60;7.53;;;;;;;6.49;56.92;93563.97;5032751;28;20037;-71
2024/03/04 04:33:18;;;;;;;11.50;7.63;;;;;;;6.33;56.96;93553.69;5032646;28;20029;-71
2024/03/04 04:35:44;;;;;;;12.55;7.63;;;;;;;6.34;57.14;93549.97;5033188;28;20152;-71
2024/03/04 04:38:09;;;;;;;15.95;8.27;;;;;;;6.34;57.28;93557.91;5032509;28;20099;-71
2024/03/04 04:40:35;;;;;;;10.45;7.30;;;;;;;6.45;57.12;93573.56;5032385;28;20136;-71
2024/03/04 04:43:00;;;;;;;9.85;6.85;;;;;;;6.48;56.87;93578.25;5032536;28;20033;-72
2024/03/04 04:45:26;;;;;;;10.02;6.90;;;;;;;6.44;57.08;93578.06;5032408;28;20038;-71
2024/03/04 04:47:52;;;;;;;9.80;7.50;;;;;;;6.44;57.57;93578.06;5032784;28;20036;-71
2024/03/04 04:50:18;;;;;;;12.45;7.82;;;;;;;6.44;57.26;93575.44;5032205;28;20117;-71
2024/03/04 04:52:43;;;;;;;10.43;7.30;;;;;;;6.37;57.38;93581.09;5032474;28;20113;-71
2024/03/04 04:55:09;;;;;;;14.50;8.88;;;;;;;6.31;57.55;93568.28;5032153;28;20030;-71
2024/03/04 04:57:35;;;;;;;16.77;7.75;;;;;;;6.40;57.42;93577.88;5032149;28;20116;-71
2024/03/04 05:00:00;;;;;;;10.68;6.95;;;;;;;6.40;57.19;93574.44;5031900;28;20056;-71
2024/03/04 05:02:25;;;;;;;13.75;7.47;;;;;;;6.43;56.80;93581.78;5032449;28;20026;-71
2024/03/04 05:04:51;;;;;;;13.77;7.72;;;;;;;6.42;56.95;93574.94;5032106;28;20581;-71
2024/03/04 05:07:16;;;;;;;11.32;7.90;;;;;;;6.38;56.81;93571.31;5031953;28;20083;-71
2024/03/04 05:09:42;;;;;;;15.82;9.25;;;;;;;6.42;57.08;93583.63;5031076;28;20040;-72
2024/03/04 05:12:08;;;;;;;22.60;9.27;;;;;;;6.49;57.10;93593.03;5031750;28;20071;-71
2024/03/04 05:14:34;;;;;;;16.30;8.40;;;;;;;6.45;57.26;93592.84;5032470;28;20039;-72
2024/03/04 05:16:59;;;;;;;13.50;9.38;;;;;;;6.37;57.33;93590.88;5031006;28;20456;-71
2024/03/04 05:19:33;;;;;;;15.52;9.13;;;;;;;6.46;57.32;93597.03;5031251;28;20048;-71
2024/03/04 05:21:59;;;;;;;13.40;7.47;;;;;;;6.44;57.13;93593.91;5031494;28;20029;-71
2024/03/04 05:24:24;;;;;;;10.68;6.93;;;;;;;6.48;57.42;93602.81;5031492;28;20148;-71
2024/03/04 05:26:50;;;;;;;10.85;7.03;;;;;;;6.49;57.50;93600.97;5031974;28;20075;-71
2024/03/04 05:29:15;;;;;;;8.65;6.40;;;;;;;6.48;58.06;93607.31;5031636;28;20177;-71
2024/03/04 05:31:52;;;;;;;13.80;8.07;;;;;;;6.41;57.83;93581.28;5031383;28;20037;-71
2024/03/04 05:34:18;;;;;;;12.07;6.70;;;;;;;6.60;57.96;93602.34;5030415;28;20048;-72
2024/03/04 05:36:43;;;;;;;10.90;7.82;;;;;;;6.59;57.85;93588.34;5031411;28;20037;-71
2024/03/04 05:39:10;;;;;;;10.70;7.18;;;;;;;6.71;57.79;93598.44;5031418;28;20045;-71
2024/03/04 05:41:37;;;;;;;9.52;7.60;;;;;;;6.70;58.04;93587.06;5032174;28;20030;-71
2024/03/04 05:44:02;;;;;;;10.48;7.47;;;;;;;6.79;57.92;93587.19;5031249;28;20034;-71
2024/03/04 05:46:28;;;;;;;16.45;8.73;;;;;;;6.80;58.15;93592.16;5031300;28;20099;-72
2024/03/04 05:48:53;;;;;;;10.77;8.20;;;;;;;6.94;58.14;93610.69;5031161;28;20030;-71
2024/03/04 05:51:19;;;;;;;16.15;8.65;;;;;;;6.99;58.51;93609.78;5031706;28;20035;-71
2024/03/04 05:53:45;;;;;;;11.15;8.18;;;;;;;7.12;58.25;93609.00;5031851;28;20025;-71
2024/03/04 05:56:10;;;;;;;21.50;12.77;;;;;;;7.19;58.27;93610.16;5031589;28;20033;-71
2024/03/04 05:58:38;;;;;;;19.77;10.95;;;;;;;7.28;58.35;93595.16;5031323;28;20723;-71
2024/03/04 06:01:03;;;;;;;20.45;11.32;;;;;;;7.37;58.55;93599.75;5031437;28;20033;-71
2024/03/04 06:03:28;;;;;;;22.80;14.27;;;;;;;7.42;58.76;93591.69;5031055;28;20167;-71
2024/03/04 06:05:54;;;;;;;24.50;16.63;;;;;;;6.95;61.76;93600.88;5031423;28;20032;-69
2024/03/04 06:08:19;;;;;;;34.63;19.65;;;;;;;6.75;63.52;93600.19;5031665;28;20475;-71
2024/03/04 06:10:44;;;;;;;23.13;16.17;;;;;;;6.39;65.96;93607.22;5030914;28;20045;-71
2024/03/04 06:13:10;;;;;;;26.60;15.50;;;;;;;6.69;64.95;93580.25;5030676;28;20029;-71
2024/03/04 06:15:35;;;;;;;25.67;15.95;;;;;;;6.83;64.86;93602.16;5030663;28;20049;-71
2024/03/04 06:18:01;;;;;;;29.65;17.33;;;;;;;7.22;63.07;93588.41;5030847;28;20025;-71
2024/03/04 06:20:26;;;;;;;27.52;15.57;;;;;;;7.38;61.83;93570.34;5031700;28;20413;-71
2024/03/04 06:22:51;;;;;;;23.83;14.48;;;;;;;7.49;61.55;93587.53;5030918;28;20468;-71
2024/03/04 06:25:17;;;;;;;20.98;14.13;;;;;;;7.23;63.16;93599.78;5030894;28;20060;-71
2024/03/04 06:27:43;;;;;;;22.13;13.90;;;;;;;6.89;64.81;93596.78;5030936;28;20523;-71
2024/03/04 06:30:12;;;;;;;25.17;14.20;;;;;;;6.25;66.47;93580.00;5032828;28;20030;-71
2024/03/04 06:32:37;;;;;;;19.27;12.63;;;;;;;6.54;66.24;93569.97;5035391;28;20080;-71
2024/03/04 06:35:04;;;;;;;17.40;10.82;;;;;;;6.56;64.60;93596.84;5034627;28;20508;-71
2024/03/04 06:37:30;;;;;;;16.25;10.93;;;;;;;6.44;65.40;93588.63;5034877;28;20120;-71
2024/03/04 06:39:55;;;;;;;15.63;9.93;;;;;;;6.30;66.12;93598.41;5034530;28;20120;-71
2024/03/04 06:42:20;;;;;;;16.25;10.18;;;;;;;5.96;67.02;93586.28;5034626;28;20029;-71
2024/03/04 06:44:46;;;;;;;16.98;11.18;;;;;;;5.91;67.22;93591.63;5034699;28;20038;-71
2024/03/04 06:47:12;;;;;;;14.15;9.55;;;;;;;5.81;66.65;93597.06;5034749;28;20034;-71
2024/03/04 06:49:38;;;;;;;12.80;9.75;;;;;;;6.02;66.71;93592.22;5034481;28;20550;-71
2024/03/04 06:52:03;;;;;;;14.02;8.65;;;;;;;5.80;66.24;93582.31;5034587;28;20120;-71
2024/03/04 06:54:35;;;;;;;15.48;9.70;;;;;;;5.87;67.33;93595.13;5038925;28;20064;-71
2024/03/04 06:57:17;;;;;;;13.30;8.55;;;;;;;5.87;66.24;93511.44;5012117;23;20341;-88
2024/03/04 06:59:44;;;;;;;15.93;10.25;;;;;;;5.87;65.57;93521.25;4985249;28;20030;-87
2024/03/04 07:02:09;;;;;;;19.38;13.18;;;;;;;5.48;65.88;93447.75;4979969;28;20038;-89
2024/03/04 07:04:35;;;;;;;19.77;11.82;;;;;;;5.90;65.61;93513.53;4973159;28;20050;-89
2024/03/04 07:07:00;;;;;;;22.35;12.95;;;;;;;5.71;64.88;93480.34;4965352;28;20051;-87
2024/03/04 07:09:26;;;;;;;17.00;10.00;;;;;;;6.49;64.34;93593.03;4952145;28;20046;-90
2024/03/04 07:12:10;;;;;;;17.83;9.98;;;;;;;6.38;64.40;93600.38;4953749;28;20031;-89
2024/03/04 07:14:38;;;;;;;14.88;10.00;;;;;;;5.76;64.61;93515.34;4973636;28;20103;-90
2024/03/04 07:17:04;;;;;;;20.77;12.25;;;;;;;6.15;64.90;93543.19;4962364;28;20134;-89
2024/03/04 07:19:30;;;;;;;16.52;10.32;;;;;;;6.30;64.88;93590.47;4952569;28;20046;-90
2024/03/04 07:21:55;;;;;;;17.30;11.02;;;;;;;5.96;65.41;93546.69;4953799;28;20046;-91
2024/03/04 07:24:22;;;;;;;18.52;12.40;;;;;;;5.75;66.39;93545.44;4971389;28;20040;-89
2024/03/04 07:26:47;;;;;;;20.00;12.00;;;;;;;5.65;66.33;93513.94;4981350;28;20681;-89
2024/03/04 07:29:13;;;;;;;15.20;10.75;;;;;;;6.09;66.34;93557.53;4967425;28;20343;-88
2024/03/04 07:31:39;;;;;;;21.45;12.82;;;;;;;5.91;67.32;93544.13;4972714;28;20045;-89
2024/03/04 07:34:10;;;;;;;32.88;14.73;;;;;;;5.97;65.44;93548.22;4968025;28;20050;-88
2024/03/04 07:36:43;;;;;;;20.88;12.68;;;;;;;6.41;65.72;93594.47;4961844;28;20039;-88
2024/03/04 07:39:08;;;;;;;23.40;13.45;;;;;;;6.02;66.09;93546.59;4971237;28;20501;-88
2024/03/04 07:41:34;;;;;;;21.17;14.23;;;;;;;6.06;65.93;93521.16;4966594;28;20037;-88
2024/03/04 07:43:59;;;;;;;24.73;15.90;;;;;;;5.69;65.33;93456.88;4966407;28;20039;-89
2024/03/04 07:46:25;;;;;;;38.63;17.58;;;;;;;6.37;65.13;93546.75;4960440;28;20513;-88
2024/03/04 07:48:51;;;;;;;25.45;13.60;;;;;;;6.09;65.76;93512.66;4950852;28;20039;-89
2024/03/04 07:51:22;;;;;;;24.20;13.65;;;;;;;6.17;65.64;93480.31;4960776;28;20158;-89
2024/03/04 07:53:48;;;;;;;21.65;14.23;;;;;;;6.84;63.96;93572.00;4969758;28;20089;-89
2024/03/04 07:56:14;;;;;;;23.10;13.18;;;;;;;6.94;63.45;93546.44;4966795;28;20050;-89
2024/03/04 07:58:42;;;;;;;27.42;13.77;;;;;;;6.66;63.63;93512.09;4962523;28;20070;-88
2024/03/04 08:01:12;;;;;;;23.80;13.52;;;;;;;6.23;63.67;93439.53;4967916;28;20042;-89
2024/03/04 08:03:38;;;;;;;20.00;12.98;;;;;;;6.88;62.78;93514.03;4967512;28;20584;-89
2024/03/04 08:06:06;;;;;;;23.33;14.85;;;;;;;6.64;62.96;93524.84;4970689;28;20032;-89
2024/03/04 08:08:34;;;;;;;25.63;16.08;;;;;;;7.30;63.65;93587.69;4982857;28;20648;-88
2024/03/04 08:11:00;;;;;;;25.77;14.38;;;;;;;7.03;62.75;93531.44;4973420;28;20043;-89
2024/03/04 08:13:29;;;;;;;25.00;14.88;;;;;;;6.09;63.81;93444.00;4963845;28;20544;-89
2024/03/04 08:15:55;;;;;;;27.45;15.35;;;;;;;6.67;64.92;93537.47;4942238;28;20070;-89
2024/03/04 08:18:24;;;;;;;24.20;15.45;;;;;;;6.42;64.10;93508.88;4954665;28;20035;-89
2024/03/04 08:20:52;;;;;;;27.95;14.90;;;;;;;7.01;64.63;93591.75;4954266;28;20031;-91
2024/03/04 08:23:23;;;;;;;21.38;13.70;;;;;;;6.90;62.97;93526.97;4962676;28;20043;-90
2024/03/04 08:25:49;;;;;;;21.38;13.45;;;;;;;7.47;61.21;93579.16;4956992;28;20043;-91
2024/03/04 08:28:15;;;;;;;22.20;13.70;;;;;;;7.03;61.70;93503.13;4966538;28;20064;-90
2024/03/04 08:30:40;;;;;;;19.75;11.90;;;;;;;7.26;59.98;93466.91;4968239;28;20409;-90
2024/03/04 08:33:06;;;;;;;22.30;12.70;;;;;;;7.87;59.21;93497.25;4964695;28;20030;-91
2024/03/04 08:35:45;;;;;;;18.67;11.90;;;;;;;7.42;59.37;93530.84;4967895;28;20137;-90
2024/03/04 08:38:11;;;;;;;18.98;12.05;;;;;;;7.00;59.91;93489.72;4963294;28;20038;-90
2024/03/04 08:40:37;;;;;;;17.42;11.02;;;;;;;6.89;60.72;93485.75;4966564;28;20437;-90
2024/03/04 08:43:04;;;;;;;22.50;13.18;;;;;;;7.62;61.18;93564.78;4966643;28;20523;-91
2024/03/04 08:45:33;;;;;;;22.58;14.43;;;;;;;6.72;61.72;93444.06;4971818;28;20042;-91
2024/03/04 08:48:03;;;;;;;22.00;12.77;;;;;;;6.84;61.46;93476.06;4968157;28;20425;-90
2024/03/04 08:50:29;;;;;;;19.92;12.27;;;;;;;6.99;61.65;93474.94;4965249;28;20037;-90
2024/03/04 08:52:57;;;;;;;20.88;13.25;;;;;;;7.26;60.58;93501.31;4963078;28;20052;-90
2024/03/04 08:55:27;;;;;;;24.98;14.30;;;;;;;7.99;59.93;93558.34;4962938;28;20074;-91
2024/03/04 08:57:53;;;;;;;21.05;12.77;;;;;;;7.56;59.83;93460.91;4968031;28;20049;-90
2024/03/04 09:00:40;;;;;;;25.60;14.45;;;;;;;7.27;58.92;93431.44;4950136;28;20250;-91
2024/03/04 09:03:11;;;;;;;28.25;15.15;;;;;;;6.80;60.83;93406.34;4945385;28;20046;-91
2024/03/04 09:05:47;;;;;;;;;;;;;;;;;;;;;
2024/03/04 09:08:13;;;;;;;28.15;15.70;;;;;;;6.93;60.72;93407.41;4968122;28;20376;-91
2024/03/04 09:10:48;;;;;;;21.17;13.77;;;;;;;7.55;59.80;93451.41;4961946;28;20372;-90
2024/03/04 09:13:13;;;;;;;34.92;15.18;;;;;;;7.23;59.27;93388.19;4970619;28;20058;-89
2024/03/04 09:15:39;;;;;;;19.35;13.02;;;;;;;7.39;59.25;93407.88;4969459;28;21017;-90
2024/03/04 09:18:25;;;;;;;27.42;15.38;;;;;;;7.83;60.30;93499.69;4983149;28;20321;-90
2024/03/04 09:20:53;;;;;;;22.35;13.88;;;;;;;7.90;58.89;93465.63;4967167;28;20030;-90
2024/03/04 09:23:21;;;;;;;21.92;12.98;;;;;;;7.97;59.33;93489.78;4970452;28;20583;-90
2024/03/04 09:25:46;;;;;;;19.33;12.48;;;;;;;8.18;58.46;93508.59;4964095;28;20047;-90
2024/03/04 09:28:14;;;;;;;23.00;13.10;;;;;;;8.48;57.16;93507.78;4968377;28;20050;-91
2024/03/04 09:30:43;;;;;;;19.23;13.23;;;;;;;7.91;57.15;93455.81;4968072;28;20050;-91
2024/03/04 09:33:11;;;;;;;20.08;12.05;;;;;;;7.97;57.52;93434.19;4975360;28;20544;-92
2024/03/04 09:35:40;;;;;;;19.23;12.90;;;;;;;8.00;56.77;93408.97;4968673;28;20041;-91
2024/03/04 09:38:07;;;;;;;18.60;11.60;;;;;;;8.70;56.10;93466.38;4964028;28;20049;-91
2024/03/04 09:40:34;;;;;;;21.90;12.35;;;;;;;8.96;56.42;93502.47;4961485;28;20470;-91
2024/03/04 09:43:00;;;;;;;23.98;12.98;;;;;;;9.09;55.51;93492.81;4954266;28;20594;-91
2024/03/04 09:45:31;;;;;;;28.10;11.32;;;;;;;8.03;55.84;93400.41;4958544;28;20497;-90
2024/03/04 09:48:02;;;;;;;20.75;12.73;;;;;;;7.83;56.70;93385.84;4954767;28;20038;-91
2024/03/04 09:50:29;;;;;;;20.10;12.98;;;;;;;8.58;58.26;93473.06;4978583;28;20042;-90
2024/03/04 09:53:05;;;;;;;22.20;12.88;;;;;;;9.20;56.71;93523.25;4963187;28;20058;-89
2024/03/04 09:58:49;;;;;;;29.98;16.58;;;;;;;8.44;57.54;93378.88;4936561;28;20154;-92
2024/03/04 10:01:19;;;;;;;24.85;16.50;;;;;;;9.20;57.35;93528.56;4976107;28;20052;-91
2024/03/04 10:03:48;;;;;;;27.20;15.20;;;;;;;9.48;57.27;93522.97;4964074;28;20050;-91
2024/03/04 10:06:16;;;;;;;26.27;14.63;;;;;;;9.05;56.72;93467.97;4971004;28;20592;-91
2024/03/04 10:09:00;;;;;;;19.92;12.95;;;;;;;9.08;56.23;93469.25;4973242;28;20042;-91
2024/03/04 10:11:29;;;;;;;20.73;12.00;;;;;;;9.42;56.41;93523.13;4952087;28;20047;-91
2024/03/04 10:14:02;;;;;;;28.10;16.88;;;;;;;8.86;55.89;93443.63;4967337;28;20129;-90
2024/03/04 10:16:31;;;;;;;22.85;12.70;;;;;;;9.28;55.98;93519.06;4977312;28;20043;-91
2024/03/04 10:19:45;;;;;;;17.48;12.20;;;;;;;9.31;56.20;93491.91;4981671;28;20046;-94
2024/03/04 10:22:15;;;;;;;22.98;12.57;;;;;;;8.85;55.65;93436.78;4984952;28;20042;-92
2024/03/04 10:24:42;;;;;;;19.90;12.93;;;;;;;9.02;55.96;93373.91;4965965;28;20137;-93
2024/03/04 10:27:57;;;;;;;21.15;13.75;;;;;;;9.54;56.59;93495.16;4944238;28;20591;-89
2024/03/04 10:30:27;;;;;;;22.95;14.10;;;;;;;8.53;56.42;93345.97;4970360;28;20042;-90
2024/03/04 10:32:53;;;;;;;30.92;15.88;;;;;;;9.45;56.51;93482.69;4972964;28;20493;-91
2024/03/04 10:35:20;;;;;;;22.55;14.55;;;;;;;8.52;57.53;93354.22;4964327;28;20042;-90
2024/03/04 10:37:47;;;;;;;23.33;15.02;;;;;;;9.54;56.92;93484.53;4974676;28;20057;-91
2024/03/04 10:40:57;;;;;;;22.73;15.15;;;;;;;9.65;56.67;93485.78;4969122;28;20050;-91
2024/03/04 10:49:38;;;;;;;27.92;15.68;;;;;;;9.03;57.37;93417.91;4959058;28;20506;-91
2024/03/04 10:52:16;;;;;;;26.15;14.65;;;;;;;8.99;57.25;93387.00;4961432;28;20122;-92
2024/03/04 10:54:43;;;;;;;23.98;15.55;;;;;;;9.09;57.05;93415.09;4967737;28;20547;-90
2024/03/04 10:57:29;;;;;;;23.77;15.10;;;;;;;9.43;57.12;93458.34;4967642;28;20607;-90
2024/03/04 11:00:35;;;;;;;24.92;15.65;;;;;;;8.69;56.43;93314.50;4972455;28;20503;-91
2024/03/04 11:03:45;;;;;;;23.45;16.13;;;;;;;8.87;57.10;93368.28;4981042;28;20142;-94
2024/03/04 11:07:01;;;;;;;28.80;15.88;;;;;;;9.49;56.38;93450.97;4965994;28;20035;-93
2024/03/04 11:09:28;;;;;;;27.25;17.92;;;;;;;9.27;57.35;93443.22;4967276;28;20049;-90
2024/03/04 11:12:03;;;;;;;26.42;16.90;;;;;;;8.18;57.91;93301.22;4977192;28;20034;-89
2024/03/04 11:14:41;;;;;;;24.85;17.80;;;;;;;8.64;57.77;93388.09;4973736;28;20655;-90
2024/03/04 11:17:32;;;;;;;33.25;18.60;;;;;;;8.61;58.53;93417.88;4954346;28;20072;-90
2024/03/04 11:19:58;;;;;;;26.63;15.60;;;;;;;8.07;59.06;93312.09;4962591;28;20046;-90
2024/03/04 11:22:46;;;;;;;;;;;;;;;;;;;;;
2024/03/04 11:25:14;;;;;;;28.30;15.57;;;;;;;8.03;57.98;93294.47;4955355;28;20125;-90
2024/03/04 11:27:43;;;;;;;25.42;16.17;;;;;;;8.63;57.81;93341.47;4961936;28;20117;-90
2024/03/04 11:30:19;;;;;;;23.60;16.20;;;;;;;8.24;57.87;93300.75;4945110;28;20113;-90
2024/03/04 11:32:54;;;;;;;28.77;16.35;;;;;;;8.89;58.08;93416.50;4970151;28;20035;-90
2024/03/04 11:35:29;;;;;;;27.73;17.33;;;;;;;8.99;58.44;93410.88;4938527;28;20042;-91
2024/03/04 11:38:49;;;;;;;30.83;17.17;;;;;;;8.63;57.62;93322.91;4960530;28;20039;-90
2024/03/04 11:41:40;;;;;;;24.90;15.75;;;;;;;8.32;58.07;93302.63;4887847;28;20055;-89
2024/03/04 11:44:13;;;;;;;26.45;17.48;;;;;;;8.22;58.22;93313.53;4924676;28;20031;-90
2024/03/04 11:49:45;;;;;;;24.83;15.30;;;;;;;9.09;58.37;93388.56;4960091;28;20050;-91